EDT,Max TemperatureF,Mean TemperatureF,Min TemperatureF,Max Dew PointF,MeanDew PointF,Min DewpointF,Max Humidity, Mean Humidity, Min Humidity, Max Sea Level PressureIn, Mean Sea Level PressureIn, Min Sea Level PressureIn, Max VisibilityMiles, Mean VisibilityMiles, Min VisibilityMiles, Max Wind SpeedMPH, Mean Wind SpeedMPH, Max Gust SpeedMPH,PrecipitationIn, CloudCover, Events, WindDirDegrees
2013-4-1,51,38,26,41,27,7,93,67,32,29.86,29.70,29.61,10,7,0,30,7,39,0.00,5,,287
2013-4-2,33,27,21,16,10,7,74,49,35,30.01,29.92,29.86,10,10,4,25,12,34,0.00,4,,284
2013-4-3,37,30,24,12,10,7,54,42,32,30.28,30.12,30.00,10,10,10,21,15,34,0.00,3,,295
2013-4-4,53,37,21,16,14,10,68,42,22,30.32,30.19,30.01,10,10,10,15,8,23,0.00,0,,245
2013-4-5,51,38,26,23,15,10,64,39,25,30.01,29.89,29.77,10,10,10,22,8,32,0.00,0,,285
2013-4-6,46,36,26,16,7,0,59,33,16,30.26,30.18,29.99,10,10,10,20,12,31,0.00,0,,316
2013-4-7,57,44,30,34,23,7,62,44,32,30.23,30.08,29.94,10,10,10,23,6,30,0.00,3,,165
2013-4-8,66,52,37,36,33,30,81,51,26,30.09,30.03,29.97,10,10,10,13,4,20,0.00,2,,311
2013-4-9,68,58,48,45,39,34,76,49,30,30.04,29.97,29.91,10,10,10,23,7,33,0.00,2,,305
2013-4-10,64,56,48,52,47,37,94,77,54,29.97,29.90,29.83,10,8,0,10,6,18,0.01,7,Thunderstorm,33
2013-4-11,55,45,35,52,37,21,88,75,49,30.03,29.95,29.83,10,9,0,16,7,22,0.00,8,,62
2013-4-12,37,35,33,34,31,28,93,85,75,30.00,29.83,29.72,10,6,0,23,15,29,0.00,8,,90
2013-4-13,50,42,35,34,30,27,93,66,46,29.92,29.84,29.76,10,9,1,14,6,21,0.00,8,,272
2013-4-14,46,40,33,28,24,21,70,53,40,30.20,30.06,29.92,10,10,10,21,7,26,0.00,5,,293
2013-4-15,60,46,32,34,27,21,70,50,34,30.33,30.27,30.19,10,10,10,15,6,20,0.00,5,,128
2013-4-16,60,51,42,52,41,28,88,68,50,30.33,30.23,30.10,10,10,10,13,7,21,0.00,8,,172
2013-4-17,62,52,42,50,33,27,87,52,27,30.31,30.23,30.14,10,10,4,16,9,21,0.01,2,,340
2013-4-18,55,47,39,46,34,27,93,61,38,30.32,30.24,30.07,10,8,0,23,9,26,0.01,6,,111
2013-4-19,69,58,48,57,53,43,88,82,64,30.07,29.82,29.60,10,6,0,22,11,28,0.00,8,Thunderstorm,180
2013-4-20,50,41,32,43,28,14,87,57,34,30.31,29.95,29.69,10,10,5,18,10,28,0.00,4,,287
2013-4-21,50,39,28,18,17,14,64,46,26,30.60,30.49,30.32,10,10,10,17,9,22,0.00,1,,348
2013-4-22,51,40,30,25,19,16,60,43,28,30.63,30.55,30.47,10,10,10,20,8,26,0.00,0,,106
2013-4-23,46,38,30,34,29,23,87,70,62,30.47,30.30,30.12,10,10,10,13,7,16,0.00,6,,88
2013-4-24,71,50,30,50,39,27,93,63,38,30.11,29.94,29.79,10,9,2,15,4,26,0.01,4,,194
2013-4-25,55,45,35,45,25,18,76,46,25,30.26,30.14,29.88,10,10,10,22,12,38,0.00,2,,296
2013-4-26,57,47,37,30,25,21,70,45,29,30.43,30.37,30.26,10,10,10,14,6,22,0.00,0,,314
2013-4-27,66,48,30,30,27,21,80,44,26,30.44,30.36,30.28,10,10,10,14,3,18,0.00,1,,2
2013-4-28,69,54,39,36,31,25,70,40,23,30.30,30.24,30.16,10,10,10,15,6,22,0.00,0,,147
2013-4-29,53,50,46,43,41,30,87,79,41,30.23,30.20,30.17,10,9,4,14,8,20,0.01,8,,123
2013-4-30,66,56,46,45,39,25,87,59,34,30.34,30.28,30.21,10,10,5,12,6,,0.00,5,,126